createdAt,value
2016-11-22T00:00:36.712Z,40.2
2016-11-22T00:05:41.153Z,40.2
2016-11-22T00:10:45.241Z,40.1
2016-11-22T00:15:49.666Z,40.1
2016-11-22T00:20:54.092Z,40.1
2016-11-22T00:25:58.521Z,40.1
2016-11-22T00:31:02.617Z,40
2016-11-22T00:36:07.044Z,40
2016-11-22T00:41:11.139Z,40
2016-11-22T00:46:15.586Z,40
2016-11-22T00:51:19.678Z,40
2016-11-22T00:56:23.773Z,40
2016-11-22T01:01:27.860Z,40
2016-11-22T01:06:32.627Z,40
2016-11-22T01:11:37.054Z,40
2016-11-22T01:16:41.479Z,40
2016-11-22T01:21:45.592Z,40
2016-11-22T01:26:50.018Z,40
2016-11-22T01:31:54.106Z,39.9
2016-11-22T01:36:58.196Z,40
2016-11-22T01:42:02.291Z,40.5
2016-11-22T01:47:06.380Z,40.7
2016-11-22T01:52:10.805Z,40.9
2016-11-22T01:57:14.892Z,41.1
2016-11-22T02:02:19.325Z,41.1
2016-11-22T02:07:23.753Z,41.1
2016-11-22T02:12:28.188Z,41
2016-11-22T02:17:32.282Z,40.9
2016-11-22T02:22:36.763Z,40.8
2016-11-22T02:27:41.871Z,40.9
2016-11-22T02:32:46.310Z,41.1
2016-11-22T02:37:50.405Z,41.2
2016-11-22T02:42:54.514Z,41.1
2016-11-22T02:47:58.602Z,40.6
2016-11-22T02:53:03.036Z,40.1
2016-11-22T02:58:07.474Z,39.7
2016-11-22T03:03:11.568Z,39.3
2016-11-22T03:08:15.656Z,39
2016-11-22T03:13:19.955Z,38.8
2016-11-22T03:18:24.053Z,38.8
2016-11-22T03:23:28.139Z,38.8
2016-11-22T03:28:32.234Z,38.8
2016-11-22T03:33:37.007Z,38.7
2016-11-22T03:38:41.104Z,38.7
2016-11-22T03:43:45.202Z,38.7
2016-11-22T03:48:49.304Z,38.6
2016-11-22T03:53:53.403Z,38.7
2016-11-22T03:58:57.497Z,38.7
2016-11-22T04:04:01.921Z,38.8
2016-11-22T04:09:06.348Z,38.8
2016-11-22T04:14:11.440Z,38.8
2016-11-22T04:19:15.533Z,38.9
2016-11-22T04:24:19.963Z,39.1
2016-11-22T04:29:24.064Z,39.5
2016-11-22T04:34:28.158Z,39.3
2016-11-22T04:39:32.587Z,39.3
2016-11-22T04:44:37.016Z,39.3
2016-11-22T04:49:41.445Z,39.4
2016-11-22T04:54:45.538Z,39.8
2016-11-22T04:59:49.965Z,39.6
2016-11-22T05:04:54.080Z,39.5
2016-11-22T05:09:58.171Z,39.5
2016-11-22T05:15:02.599Z,39.5
2016-11-22T05:20:07.027Z,39.5
2016-11-22T05:25:11.475Z,40
2016-11-22T05:30:15.901Z,39.9
2016-11-22T05:35:20.336Z,39.8
2016-11-22T05:40:24.425Z,39.8
2016-11-22T05:45:28.514Z,39.8
2016-11-22T05:50:32.941Z,39.9
2016-11-22T05:55:37.371Z,40.4
2016-11-22T06:00:41.455Z,40.8
2016-11-22T06:05:45.543Z,41.6
2016-11-22T06:10:49.971Z,42
2016-11-22T06:15:54.419Z,42.3
2016-11-22T06:20:58.962Z,41.9
2016-11-22T06:26:03.395Z,41.8
2016-11-22T06:31:07.827Z,41.4
2016-11-22T06:36:12.035Z,41.3
2016-11-22T06:41:16.458Z,41.3
2016-11-22T06:46:20.887Z,41.3
2016-11-22T06:51:25.315Z,41.2
2016-11-22T06:56:29.743Z,41.1
2016-11-22T07:01:33.842Z,41.1
2016-11-22T07:06:37.941Z,41.1
2016-11-22T07:11:42.371Z,41.1
2016-11-22T07:16:47.141Z,41
2016-11-22T07:21:51.246Z,40.8
2016-11-22T07:26:55.347Z,40.6
2016-11-22T07:31:59.769Z,40.4
2016-11-22T07:37:04.209Z,40.2
2016-11-22T07:42:08.305Z,40
2016-11-22T07:47:12.738Z,39.8
2016-11-22T07:52:16.845Z,39.6
2016-11-22T07:57:20.941Z,39.4
2016-11-22T08:02:25.380Z,39.4
2016-11-22T08:07:29.480Z,39.2
2016-11-22T08:12:34.254Z,39.1
2016-11-22T08:17:38.687Z,38.9
2016-11-22T08:22:42.788Z,38.9
2016-11-22T08:27:47.218Z,38.8
2016-11-22T08:32:51.986Z,38.9
2016-11-22T08:37:56.082Z,38.9
2016-11-22T08:43:00.845Z,38.9
2016-11-22T08:48:04.944Z,38.9
2016-11-22T08:53:09.041Z,38.9
2016-11-22T08:58:13.141Z,39
2016-11-22T09:03:17.570Z,39.1
2016-11-22T09:08:21.670Z,39.3
2016-11-22T09:13:25.761Z,39.3
2016-11-22T09:18:30.195Z,39
2016-11-22T09:23:34.555Z,39.1
2016-11-22T09:28:39.112Z,39
2016-11-22T09:33:43.880Z,39
2016-11-22T09:38:47.983Z,38.9
2016-11-22T09:43:52.076Z,39.1
2016-11-22T09:48:56.173Z,38.9
2016-11-22T09:54:00.271Z,38.8
2016-11-22T09:59:04.697Z,38.8
2016-11-22T10:04:08.796Z,38.7
2016-11-22T10:09:13.222Z,38.6
2016-11-22T10:14:17.651Z,38.8
2016-11-22T10:19:21.742Z,38.8
2016-11-22T10:24:25.839Z,38.9
2016-11-22T10:29:30.274Z,38.8
2016-11-22T10:34:34.372Z,38.9
2016-11-22T10:39:39.133Z,38.9
2016-11-22T10:44:43.548Z,39.8
2016-11-22T10:49:47.635Z,40.2
2016-11-22T10:54:52.060Z,40.4
2016-11-22T10:59:56.496Z,40.5
2016-11-22T11:05:00.578Z,40.5
2016-11-22T11:10:05.339Z,40.6
2016-11-22T11:15:10.448Z,40.5
2016-11-22T11:20:14.877Z,40.6
2016-11-22T11:25:19.640Z,40.4
2016-11-22T11:30:23.889Z,40.2
2016-11-22T11:35:27.977Z,40.1
2016-11-22T11:40:32.738Z,40
2016-11-22T11:45:37.505Z,39.9
2016-11-22T11:50:41.946Z,39.9
2016-11-22T11:55:46.375Z,39.9
2016-11-22T12:00:50.476Z,40
2016-11-22T12:05:54.571Z,40
2016-11-22T12:10:58.668Z,40
2016-11-22T12:16:03.761Z,40
2016-11-22T12:21:08.187Z,40.1
2016-11-22T12:26:12.610Z,40.1
2016-11-22T12:31:17.038Z,40.1
2016-11-22T12:36:21.472Z,40.1
2016-11-22T12:41:25.904Z,40.2
2016-11-22T12:46:30.330Z,40.2
2016-11-22T12:51:34.770Z,40.2
2016-11-22T12:56:38.876Z,40.3
2016-11-22T13:01:42.968Z,40.4
2016-11-22T13:06:47.110Z,40.3
2016-11-22T13:11:51.205Z,40
2016-11-22T13:16:55.638Z,39.6
2016-11-22T13:21:59.732Z,39.4
2016-11-22T13:27:04.326Z,39.8
2016-11-22T13:32:08.462Z,40.6
2016-11-22T13:37:12.903Z,41.3
2016-11-22T13:42:17.005Z,41.5
2016-11-22T13:47:21.430Z,41.6
2016-11-22T13:52:25.525Z,41.6
2016-11-22T13:57:29.658Z,41.7
2016-11-22T14:02:34.089Z,41.6
2016-11-22T14:07:38.210Z,41.7
2016-11-22T14:12:42.635Z,41.8
2016-11-22T14:17:47.071Z,41.8
2016-11-22T14:22:51.171Z,41.8
2016-11-22T14:27:55.292Z,41.7
2016-11-22T14:32:59.598Z,41.7
2016-11-22T14:38:04.364Z,41.6
2016-11-22T14:43:08.458Z,41.5
2016-11-22T14:48:12.889Z,41.5
2016-11-22T14:53:17.319Z,41.5
2016-11-22T14:58:21.415Z,41.4
2016-11-22T15:03:25.859Z,41.4
2016-11-22T15:08:30.674Z,41.4
2016-11-22T15:13:34.779Z,41.3
2016-11-22T15:18:38.969Z,41.3
2016-11-22T15:23:43.056Z,41.3
2016-11-22T15:28:47.482Z,41.3
2016-11-22T15:33:51.692Z,41.4
2016-11-22T15:38:55.791Z,41.1
2016-11-22T15:43:59.914Z,40.6
2016-11-22T15:49:04.374Z,40.3
2016-11-22T15:54:08.480Z,40.1
2016-11-22T15:59:12.914Z,40
2016-11-22T16:04:17.020Z,40
2016-11-22T16:09:21.103Z,40
2016-11-22T16:14:25.194Z,39.8
2016-11-22T16:19:29.314Z,39.6
2016-11-22T16:24:33.774Z,39.6
2016-11-22T16:29:38.532Z,39.8
2016-11-22T16:34:42.625Z,40.4
2016-11-22T16:39:46.719Z,40.3
2016-11-22T16:44:50.814Z,39.8
2016-11-22T16:49:55.573Z,38.9
2016-11-22T16:54:59.666Z,38.3
2016-11-22T17:00:03.760Z,38
2016-11-22T17:05:08.325Z,38
2016-11-22T17:10:12.455Z,38.4
2016-11-22T17:15:16.885Z,38.3
2016-11-22T17:20:21.322Z,38.2
2016-11-22T17:25:25.437Z,38.1
2016-11-22T17:30:29.863Z,38.1
2016-11-22T17:35:33.983Z,38
2016-11-22T17:40:38.089Z,38
2016-11-22T17:45:42.184Z,38
2016-11-22T17:50:46.276Z,38.1
2016-11-22T17:55:50.366Z,38.1
2016-11-22T18:00:54.458Z,38.1
2016-11-22T18:05:58.875Z,39.3
2016-11-22T18:11:02.966Z,39.1
2016-11-22T18:16:07.093Z,38.3
2016-11-22T18:21:11.523Z,38.2
2016-11-22T18:26:15.630Z,38.3
2016-11-22T18:31:20.066Z,38.6
2016-11-22T18:36:24.156Z,38.4
2016-11-22T18:41:28.247Z,39.1
2016-11-22T18:46:32.675Z,40.2
2016-11-22T18:51:36.763Z,39.2
2016-11-22T18:56:41.191Z,38.9
2016-11-22T19:01:45.287Z,38.8
2016-11-22T19:06:49.712Z,38.8
2016-11-22T19:11:54.472Z,38.9
2016-11-22T19:16:58.572Z,39
2016-11-22T19:22:02.661Z,39.1
2016-11-22T19:27:06.969Z,41
2016-11-22T19:32:11.393Z,39.8
2016-11-22T19:37:15.483Z,39.5
2016-11-22T19:42:19.916Z,39.2
2016-11-22T19:47:24.003Z,39.3
2016-11-22T19:52:28.111Z,39.3
2016-11-22T19:57:32.228Z,39.4
2016-11-22T20:02:36.649Z,39.4
2016-11-22T20:07:40.762Z,40.6
2016-11-22T20:12:45.527Z,40.9
2016-11-22T20:17:49.630Z,41.1
2016-11-22T20:22:54.060Z,41.3
2016-11-22T20:27:58.820Z,41.4
2016-11-22T20:33:02.960Z,41.5
2016-11-22T20:38:18.956Z,41.6
2016-11-22T20:43:23.060Z,41.7
2016-11-22T20:48:27.160Z,41.7
2016-11-22T20:53:31.616Z,41.7
2016-11-22T20:58:36.060Z,41.8
2016-11-22T21:03:40.786Z,41.9
2016-11-22T21:08:45.242Z,41.9
2016-11-22T21:13:49.671Z,41.8
2016-11-22T21:18:53.763Z,41.9
2016-11-22T21:23:57.861Z,41.9
2016-11-22T21:29:01.973Z,41.9
2016-11-22T21:34:06.075Z,42
2016-11-22T21:39:10.845Z,42
2016-11-22T21:44:14.940Z,42.1
2016-11-22T21:49:19.076Z,42.3
2016-11-22T21:54:23.164Z,42.6
2016-11-22T21:59:27.262Z,42.6
2016-11-22T22:04:31.365Z,42.8
2016-11-22T22:09:35.657Z,42.8
2016-11-22T22:14:40.081Z,42.9
2016-11-22T22:19:44.516Z,42.9
2016-11-22T22:24:48.615Z,42.9
2016-11-22T22:29:53.048Z,42.9
2016-11-22T22:34:57.477Z,43
2016-11-22T22:40:01.584Z,43
2016-11-22T22:45:06.007Z,43
2016-11-22T22:50:10.110Z,43
2016-11-22T22:55:14.206Z,43
2016-11-22T23:00:18.292Z,42.9
2016-11-22T23:05:22.386Z,43
2016-11-22T23:10:27.217Z,42.9
2016-11-22T23:15:31.308Z,42.9
2016-11-22T23:20:35.731Z,43
2016-11-22T23:25:40.229Z,42.9
2016-11-22T23:30:44.996Z,42.9
2016-11-22T23:35:49.084Z,42.9
2016-11-22T23:40:53.182Z,42.9
2016-11-22T23:45:57.271Z,42.9
2016-11-22T23:51:01.362Z,42.9
2016-11-22T23:56:05.784Z,42.9
